Time;durP1;ratioP1;P1;durP2;ratioP2;P2;SDS_P1;SDS_P2;PMS_P1;PMS_P2;Temp;Humidity;BMP_temperature;BMP_pressure;BME280_temperature;BME280_humidity;BME280_pressure;Samples;Min_cycle;Max_cycle;Signal;HPM_P1;HPM_P2
2024/02/09 00:00:17;;;;;;;10.70;6.00;;;11.70;61.10;;;;;;5092935;28;20247;-68
2024/02/09 00:02:46;;;;;;;10.23;7.30;;;11.70;61.40;;;;;;5092687;28;20467;-68
2024/02/09 00:05:15;;;;;;;11.00;6.70;;;11.70;61.50;;;;;;5088813;28;20515;-68
2024/02/09 00:07:45;;;;;;;10.38;4.80;;;11.70;61.60;;;;;;5078333;28;20534;-68
2024/02/09 00:10:14;;;;;;;8.65;4.65;;;11.60;61.60;;;;;;5091153;28;20189;-68
2024/02/09 00:12:41;;;;;;;5.70;4.00;;;11.70;61.70;;;;;;5090806;28;20247;-68
2024/02/09 00:15:09;;;;;;;6.20;3.63;;;11.70;61.40;;;;;;5094536;28;20471;-68
2024/02/09 00:17:37;;;;;;;9.63;4.85;;;11.70;61.10;;;;;;5092064;28;20793;-68
2024/02/09 00:20:07;;;;;;;12.38;4.85;;;11.70;61.20;;;;;;5090867;28;20220;-68
2024/02/09 00:22:36;;;;;;;7.10;4.70;;;11.60;61.10;;;;;;5092065;28;20190;-68
2024/02/09 00:25:05;;;;;;;9.32;4.45;;;11.50;61.50;;;;;;5091462;28;20555;-68
2024/02/09 00:27:32;;;;;;;11.45;5.68;;;11.50;61.80;;;;;;5091462;28;20589;-68
2024/02/09 00:29:59;;;;;;;9.25;5.20;;;11.50;61.80;;;;;;5090994;28;20213;-68
2024/02/09 00:32:26;;;;;;;9.55;5.28;;;11.50;62.00;;;;;;5091414;28;20465;-67
2024/02/09 00:34:54;;;;;;;10.07;5.82;;;11.50;62.00;;;;;;5091826;28;20189;-68
2024/02/09 00:37:23;;;;;;;18.73;10.90;;;11.50;62.30;;;;;;5091719;28;20204;-69
2024/02/09 00:39:50;;;;;;;16.63;9.20;;;11.40;62.80;;;;;;5092087;28;20436;-68
2024/02/09 00:42:18;;;;;;;9.88;5.20;;;11.40;62.90;;;;;;5090124;28;20265;-68
2024/02/09 00:44:45;;;;;;;11.40;5.30;;;11.50;63.10;;;;;;5092295;28;20223;-68
2024/02/09 00:47:12;;;;;;;11.88;6.63;;;11.50;63.00;;;;;;5091536;28;20490;-68
2024/02/09 00:49:41;;;;;;;12.27;5.80;;;11.40;63.10;;;;;;5092339;28;20240;-68
2024/02/09 00:52:10;;;;;;;7.25;5.90;;;11.40;63.20;;;;;;5093341;28;20185;-68
2024/02/09 00:54:39;;;;;;;8.90;5.40;;;11.40;63.30;;;;;;5092668;28;20197;-69
2024/02/09 00:57:06;;;;;;;9.98;6.13;;;11.40;63.40;;;;;;5093351;28;20283;-68
2024/02/09 00:59:36;;;;;;;9.25;6.00;;;11.30;63.50;;;;;;5092598;28;20284;-68
2024/02/09 01:02:03;;;;;;;7.70;4.95;;;11.30;63.50;;;;;;5093222;28;20204;-68
2024/02/09 01:04:30;;;;;;;6.38;4.28;;;11.40;63.60;;;;;;5093325;28;20239;-68
2024/02/09 01:06:58;;;;;;;8.45;4.38;;;11.40;63.50;;;;;;5093202;28;20220;-68
2024/02/09 01:09:25;;;;;;;4.00;2.88;;;11.40;63.10;;;;;;5093547;28;20254;-68
2024/02/09 01:11:55;;;;;;;4.60;3.20;;;11.40;62.80;;;;;;5093253;28;20220;-69
2024/02/09 02:44:57;;;;;;;4.53;2.63;;;10.70;65.80;;;;;;5096357;28;20570;-68
2024/02/09 02:47:29;;;;;;;6.53;3.25;;;10.70;65.70;;;;;;5095577;28;20442;-68
2024/02/09 03:06:26;;;;;;;3.83;2.47;;;10.50;66.80;;;;;;5093791;28;20215;-69
2024/02/09 03:08:53;;;;;;;5.30;3.40;;;10.50;67.50;;;;;;5095816;28;20225;-69
2024/02/09 03:11:21;;;;;;;5.15;3.17;;;10.50;67.50;;;;;;5095708;28;20193;-68
2024/02/09 03:13:49;;;;;;;4.45;2.90;;;10.50;67.60;;;;;;5095547;28;20238;-68
2024/02/09 03:16:17;;;;;;;5.15;3.28;;;10.50;67.70;;;;;;5095983;28;20227;-68
2024/02/09 03:18:45;;;;;;;4.25;2.60;;;10.60;67.90;;;;;;5095839;28;20197;-68
2024/02/09 03:21:19;;;;;;;4.25;2.45;;;10.60;68.00;;;;;;5095877;28;20194;-69
2024/02/09 03:23:48;;;;;;;5.45;2.88;;;10.60;68.10;;;;;;5092984;28;20293;-68
2024/02/09 03:26:15;;;;;;;6.07;2.15;;;10.60;68.10;;;;;;5095138;28;20227;-68
2024/02/09 03:28:44;;;;;;;9.07;2.80;;;10.60;67.90;;;;;;5095668;28;20258;-68
2024/02/09 03:31:12;;;;;;;4.35;2.20;;;10.70;67.90;;;;;;5091728;28;20206;-68
2024/02/09 03:33:45;;;;;;;4.90;3.00;;;10.70;67.70;;;;;;5095465;28;20196;-68
2024/02/09 03:36:12;;;;;;;3.60;2.78;;;10.70;67.30;;;;;;5090841;28;20275;-68
2024/02/09 03:38:41;;;;;;;5.05;2.30;;;10.70;67.20;;;;;;5091261;28;20193;-68
2024/02/09 03:41:10;;;;;;;3.80;2.30;;;10.70;67.10;;;;;;5094694;28;20587;-68
2024/02/09 03:43:37;;;;;;;3.70;2.10;;;10.60;67.30;;;;;;5094889;28;20644;-68
2024/02/09 03:46:05;;;;;;;3.38;1.98;;;10.60;67.30;;;;;;5094813;28;20255;-68
2024/02/09 03:48:32;;;;;;;3.95;2.10;;;10.70;67.10;;;;;;5094903;28;20238;-68
2024/02/09 03:51:01;;;;;;;3.45;2.17;;;10.70;66.80;;;;;;5095053;28;20229;-68
2024/02/09 03:53:30;;;;;;;3.40;1.92;;;10.60;67.10;;;;;;5095303;28;20200;-68
2024/02/09 03:56:01;;;;;;;3.50;2.20;;;10.60;67.50;;;;;;5094653;28;20200;-68
2024/02/09 03:58:30;;;;;;;5.05;2.67;;;10.60;67.20;;;;;;5094960;28;20281;-68
2024/02/09 04:00:58;;;;;;;4.20;2.30;;;10.60;67.50;;;;;;5094660;28;20239;-68
2024/02/09 04:03:25;;;;;;;4.22;2.70;;;10.60;67.50;;;;;;5094611;28;20193;-68
2024/02/09 04:05:52;;;;;;;3.80;2.65;;;10.50;67.50;;;;;;5094380;28;20256;-68
2024/02/09 04:08:23;;;;;;;4.75;2.58;;;10.50;67.70;;;;;;5094814;28;20248;-68
2024/02/09 04:10:51;;;;;;;4.30;2.38;;;10.50;67.70;;;;;;5091023;28;20631;-68
2024/02/09 04:13:18;;;;;;;4.10;2.65;;;10.50;67.70;;;;;;5094310;28;20240;-68
2024/02/09 04:15:46;;;;;;;6.15;3.00;;;10.50;68.00;;;;;;5093960;28;20197;-68
2024/02/09 04:18:13;;;;;;;4.95;3.05;;;10.50;68.00;;;;;;5094153;28;20193;-68
2024/02/09 04:20:41;;;;;;;4.60;2.47;;;10.50;68.20;;;;;;5094176;28;20636;-68
2024/02/09 04:23:10;;;;;;;5.38;2.80;;;10.50;68.10;;;;;;5093971;28;20201;-68
2024/02/09 04:25:37;;;;;;;3.92;2.67;;;10.50;68.40;;;;;;5094047;28;20217;-68
2024/02/09 04:28:05;;;;;;;5.00;1.98;;;10.50;68.10;;;;;;5094381;28;20243;-68
2024/02/09 04:30:32;;;;;;;4.95;2.80;;;10.50;68.00;;;;;;5092721;28;20608;-69
2024/02/09 04:33:01;;;;;;;3.83;2.47;;;10.50;68.10;;;;;;5093277;28;20217;-68
2024/02/09 04:35:28;;;;;;;6.00;3.08;;;10.60;68.10;;;;;;5093632;28;20636;-68
2024/02/09 04:37:55;;;;;;;5.47;3.10;;;10.60;68.30;;;;;;5090168;28;20225;-68
2024/02/09 04:40:22;;;;;;;5.10;2.65;;;10.60;68.00;;;;;;5092960;28;20305;-68
2024/02/09 04:42:49;;;;;;;8.10;3.75;;;10.60;67.80;;;;;;5093711;28;20193;-68
2024/02/09 04:45:18;;;;;;;10.38;5.82;;;10.50;67.90;;;;;;5093520;28;20193;-68
2024/02/09 04:47:45;;;;;;;8.55;4.80;;;10.50;67.90;;;;;;5092936;28;20294;-68
2024/02/09 04:50:14;;;;;;;13.40;8.30;;;10.50;68.10;;;;;;5093718;28;20643;-68
2024/02/09 04:52:41;;;;;;;10.40;6.50;;;10.40;68.10;;;;;;5093871;28;20225;-68
2024/02/09 04:55:10;;;;;;;7.65;3.70;;;10.40;68.30;;;;;;5092348;28;20640;-68
2024/02/09 04:57:37;;;;;;;7.22;4.68;;;10.40;68.10;;;;;;5093220;28;20236;-68
2024/02/09 05:00:05;;;;;;;6.85;3.63;;;10.40;68.40;;;;;;5093101;28;20274;-68
2024/02/09 05:02:34;;;;;;;6.35;4.25;;;10.40;68.10;;;;;;5093874;28;20752;-68
2024/02/09 05:05:01;;;;;;;4.90;2.47;;;10.40;68.30;;;;;;5093855;28;20197;-68
2024/02/09 05:07:30;;;;;;;4.68;2.80;;;10.30;68.10;;;;;;5091290;28;20278;-68
2024/02/09 05:09:57;;;;;;;3.58;2.75;;;10.30;68.50;;;;;;5093357;28;20721;-68
2024/02/09 05:12:25;;;;;;;4.45;2.60;;;10.30;68.90;;;;;;5093754;28;20205;-68
2024/02/09 05:14:54;;;;;;;3.60;2.42;;;10.30;68.90;;;;;;5093370;28;20200;-68
2024/02/09 05:17:22;;;;;;;4.72;2.65;;;10.30;69.00;;;;;;5092932;28;20197;-68
2024/02/09 05:19:50;;;;;;;8.82;3.33;;;10.30;68.80;;;;;;5093407;28;20204;-69
2024/02/09 05:22:17;;;;;;;5.43;2.70;;;10.30;68.50;;;;;;5093664;28;20250;-69
2024/02/09 05:24:46;;;;;;;3.45;2.30;;;10.30;68.10;;;;;;5093540;28;20254;-69
2024/02/09 05:27:13;;;;;;;4.95;3.03;;;10.20;68.50;;;;;;5092732;28;20245;-68
2024/02/09 05:29:40;;;;;;;5.68;2.40;;;10.20;68.60;;;;;;5093188;28;20193;-68
2024/02/09 05:32:10;;;;;;;6.50;3.15;;;10.20;68.50;;;;;;5093034;28;20223;-68
2024/02/09 05:34:38;;;;;;;6.95;4.50;;;10.20;68.60;;;;;;5093349;28;20202;-69
2024/02/09 05:37:05;;;;;;;5.60;3.33;;;10.20;68.50;;;;;;5093070;28;20193;-68
2024/02/09 05:39:32;;;;;;;7.57;3.60;;;10.20;68.70;;;;;;5093281;28;20190;-69
2024/02/09 05:42:00;;;;;;;4.70;3.45;;;10.20;68.50;;;;;;5093338;28;20298;-68
2024/02/09 05:44:27;;;;;;;15.77;4.50;;;10.10;68.60;;;;;;5093219;28;20239;-69
2024/02/09 05:46:54;;;;;;;6.40;4.40;;;10.10;68.80;;;;;;5092427;28;20304;-69
2024/02/09 05:49:21;;;;;;;12.45;5.15;;;10.10;68.90;;;;;;5092789;28;20189;-69
2024/02/09 05:51:49;;;;;;;7.65;4.05;;;10.20;69.30;;;;;;5093276;28;20201;-69
2024/02/09 05:54:17;;;;;;;8.32;4.85;;;10.20;69.20;;;;;;5092773;28;20627;-69
2024/02/09 05:56:46;;;;;;;8.18;4.38;;;10.10;69.30;;;;;;5092611;28;20287;-69
2024/02/09 05:59:15;;;;;;;5.93;4.70;;;10.10;69.90;;;;;;5097101;28;20189;-69
2024/02/09 06:01:42;;;;;;;8.85;5.70;;;10.10;70.10;;;;;;5093493;28;20189;-69
2024/02/09 06:04:10;;;;;;;6.10;4.15;;;10.10;69.70;;;;;;5093248;28;20230;-69
2024/02/09 06:06:43;;;;;;;5.93;4.05;;;10.00;69.90;;;;;;5095595;28;20682;-69
2024/02/09 06:09:10;;;;;;;7.03;3.63;;;10.10;69.90;;;;;;5093066;28;20618;-69
2024/02/09 06:11:37;;;;;;;14.27;4.60;;;10.10;69.60;;;;;;5097236;28;20300;-69
2024/02/09 06:14:04;;;;;;;10.05;6.00;;;10.10;69.60;;;;;;5096290;28;20239;-68
2024/02/09 06:16:33;;;;;;;11.90;7.95;;;10.00;69.70;;;;;;5095643;28;20239;-69
2024/02/09 06:19:00;;;;;;;8.50;5.07;;;10.00;70.20;;;;;;5096656;28;20221;-69
2024/02/09 06:21:27;;;;;;;8.85;4.93;;;9.90;72.00;;;;;;5096631;28;20707;-69
2024/02/09 06:23:54;;;;;;;6.53;4.82;;;9.90;71.90;;;;;;5096690;28;20276;-69
2024/02/09 06:26:23;;;;;;;7.07;4.20;;;10.00;70.50;;;;;;5096084;28;20303;-69
2024/02/09 06:28:50;;;;;;;6.80;4.18;;;10.00;70.60;;;;;;5096646;28;20201;-68
2024/02/09 06:31:18;;;;;;;7.60;3.90;;;10.10;70.20;;;;;;5096653;28;20205;-69
2024/02/09 06:33:49;;;;;;;5.93;4.28;;;10.10;70.00;;;;;;5090625;28;20186;-69
2024/02/09 06:36:16;;;;;;;6.30;4.30;;;10.10;69.80;;;;;;5092381;28;20652;-69
2024/02/09 06:38:43;;;;;;;7.75;4.78;;;10.00;69.80;;;;;;5096614;28;20633;-69
2024/02/09 06:41:10;;;;;;;7.57;4.75;;;10.00;70.10;;;;;;5094993;28;20916;-69
2024/02/09 06:43:39;;;;;;;7.93;3.65;;;9.90;71.30;;;;;;5096320;28;20225;-69
2024/02/09 06:46:06;;;;;;;10.75;4.10;;;9.90;71.60;;;;;;5095434;28;20223;-69
2024/02/09 06:48:38;;;;;;;6.82;3.55;;;9.90;71.90;;;;;;5096251;28;20192;-68
2024/02/09 06:51:07;;;;;;;5.07;3.35;;;9.90;71.60;;;;;;5096048;28;20186;-69
2024/02/09 06:53:34;;;;;;;5.97;4.20;;;9.90;71.70;;;;;;5095420;28;20193;-69
2024/02/09 06:56:02;;;;;;;4.75;3.25;;;9.90;71.70;;;;;;5092061;28;20224;-69
2024/02/09 06:58:30;;;;;;;5.60;3.20;;;9.90;72.00;;;;;;5095049;28;20355;-69
2024/02/09 07:00:59;;;;;;;5.05;3.63;;;10.00;70.60;;;;;;5095166;28;20196;-69
2024/02/09 07:03:28;;;;;;;6.13;3.38;;;10.00;70.50;;;;;;5095148;28;20228;-68
2024/02/09 07:06:01;;;;;;;6.85;3.75;;;10.00;70.40;;;;;;5091618;28;20193;-69
2024/02/09 07:08:36;;;;;;;5.40;3.60;;;10.10;70.40;;;;;;5093695;28;20267;-69
2024/02/09 07:11:04;;;;;;;4.88;3.55;;;10.10;70.10;;;;;;5093690;28;20196;-69
2024/02/09 07:13:33;;;;;;;5.07;3.30;;;10.10;70.00;;;;;;5095855;28;20586;-69
2024/02/09 07:16:02;;;;;;;6.90;3.75;;;10.10;70.00;;;;;;5094590;28;20236;-68
2024/02/09 07:18:30;;;;;;;5.93;3.90;;;10.10;70.00;;;;;;5094031;28;20277;-69
2024/02/09 07:20:58;;;;;;;5.85;3.60;;;10.10;70.30;;;;;;5095375;28;20193;-69
2024/02/09 07:23:27;;;;;;;8.70;5.15;;;10.10;70.50;;;;;;5093755;28;20193;-69
2024/02/09 07:25:56;;;;;;;9.38;5.57;;;10.00;70.60;;;;;;5094527;28;20307;-69
2024/02/09 07:28:25;;;;;;;6.82;3.65;;;10.10;71.00;;;;;;5092575;28;20726;-69
2024/02/09 07:30:57;;;;;;;5.93;3.67;;;10.10;71.10;;;;;;5093669;28;20299;-69
2024/02/09 07:33:24;;;;;;;5.15;3.83;;;10.10;71.30;;;;;;5094170;28;20194;-69
2024/02/09 07:35:51;;;;;;;5.28;3.42;;;10.10;71.30;;;;;;5089197;28;20280;-69
2024/02/09 07:38:18;;;;;;;4.90;3.10;;;10.10;71.40;;;;;;5092644;28;20213;-68
2024/02/09 07:40:46;;;;;;;6.78;3.75;;;10.20;71.60;;;;;;5092741;28;20256;-68
2024/02/09 07:43:14;;;;;;;8.82;4.13;;;10.20;71.40;;;;;;5094411;28;20190;-67
2024/02/09 07:45:42;;;;;;;4.78;3.28;;;10.30;71.50;;;;;;5092841;28;20284;-67
2024/02/09 07:48:09;;;;;;;7.32;4.05;;;10.30;71.50;;;;;;5094079;28;20235;-68
2024/02/09 07:50:40;;;;;;;6.50;3.95;;;10.30;71.50;;;;;;5094542;28;20598;-68
2024/02/09 07:53:07;;;;;;;8.10;3.60;;;10.40;71.50;;;;;;5094297;28;20294;-67
2024/02/09 07:55:34;;;;;;;6.00;3.72;;;10.40;71.60;;;;;;5093162;28;20527;-68
2024/02/09 07:58:01;;;;;;;7.05;3.58;;;10.50;71.40;;;;;;5094480;28;20194;-68
2024/02/09 08:00:29;;;;;;;5.10;3.40;;;10.50;71.50;;;;;;5090033;28;20647;-68
2024/02/09 08:02:56;;;;;;;7.55;4.00;;;10.60;71.80;;;;;;5094214;28;20236;-68
2024/02/09 08:05:24;;;;;;;14.35;3.65;;;10.70;71.40;;;;;;5093324;28;20233;-68
2024/02/09 08:07:52;;;;;;;6.68;3.42;;;10.80;71.30;;;;;;5093053;28;20248;-68
2024/02/09 08:10:19;;;;;;;4.65;2.85;;;11.00;71.10;;;;;;5092661;28;20205;-68
2024/02/09 08:12:46;;;;;;;5.82;3.65;;;11.10;70.90;;;;;;5093914;28;20185;-68
2024/02/09 08:15:14;;;;;;;5.38;3.08;;;11.30;70.50;;;;;;5094063;28;20197;-68
2024/02/09 08:17:48;;;;;;;5.68;3.00;;;11.40;70.10;;;;;;5093739;28;20595;-68
2024/02/09 08:20:15;;;;;;;5.70;2.90;;;11.40;69.70;;;;;;5093578;28;20189;-68
2024/02/09 08:22:44;;;;;;;7.35;3.30;;;11.50;69.50;;;;;;5092908;28;20272;-68
2024/02/09 08:25:11;;;;;;;9.00;3.08;;;11.60;68.80;;;;;;5089203;28;20181;-68
2024/02/09 08:27:38;;;;;;;4.70;2.88;;;11.70;67.70;;;;;;5093155;28;20225;-68
2024/02/09 08:30:10;;;;;;;5.43;2.70;;;11.80;67.50;;;;;;5094017;28;20197;-68
2024/02/09 08:32:39;;;;;;;5.32;3.55;;;11.90;67.20;;;;;;5090894;28;20224;-68
2024/02/09 08:35:08;;;;;;;5.00;3.07;;;12.00;67.20;;;;;;5094153;28;20280;-68
2024/02/09 08:37:36;;;;;;;6.53;3.50;;;12.10;67.40;;;;;;5091705;28;20443;-68
2024/02/09 08:40:03;;;;;;;13.63;8.30;;;12.20;67.30;;;;;;5094061;28;20196;-68
2024/02/09 08:42:33;;;;;;;20.10;10.77;;;12.30;66.60;;;;;;5093389;28;20917;-68
2024/02/09 08:45:00;;;;;;;12.25;8.30;;;12.40;66.60;;;;;;5093737;28;20505;-68
2024/02/09 08:47:28;;;;;;;8.00;5.23;;;12.40;65.40;;;;;;5093297;28;20656;-67
2024/02/09 08:49:56;;;;;;;9.27;4.77;;;12.30;64.90;;;;;;5093348;28;20500;-67
2024/02/09 08:52:24;;;;;;;15.10;6.15;;;12.30;64.30;;;;;;5093694;28;20442;-67
2024/02/09 08:54:51;;;;;;;8.30;5.50;;;12.20;64.40;;;;;;5093134;28;20268;-68
2024/02/09 08:57:20;;;;;;;12.00;5.00;;;12.10;65.00;;;;;;5093455;28;20470;-68
2024/02/09 08:59:47;;;;;;;8.07;4.60;;;12.10;65.40;;;;;;5093089;28;20492;-68
2024/02/09 09:02:14;;;;;;;8.33;4.30;;;12.10;66.40;;;;;;5093689;28;20478;-68
2024/02/09 09:04:41;;;;;;;8.43;5.07;;;12.10;66.40;;;;;;5093594;28;20839;-67
2024/02/09 09:07:08;;;;;;;6.50;4.00;;;12.10;66.50;;;;;;5093087;28;20594;-70
2024/02/09 09:09:36;;;;;;;7.32;3.90;;;12.10;66.80;;;;;;5092924;28;20478;-67
2024/02/09 09:12:04;;;;;;;7.40;3.88;;;12.20;66.70;;;;;;5092697;28;20283;-67
2024/02/09 09:14:34;;;;;;;5.40;3.87;;;12.20;66.70;;;;;;5093184;28;20193;-68
2024/02/09 09:17:01;;;;;;;5.80;3.23;;;12.20;66.70;;;;;;5093045;28;20435;-67
2024/02/09 09:19:28;;;;;;;4.53;3.30;;;12.10;67.10;;;;;;5093060;28;20504;-67
2024/02/09 09:21:55;;;;;;;10.03;5.10;;;12.20;67.60;;;;;;5092497;28;20440;-67
2024/02/09 09:24:22;;;;;;;11.53;6.97;;;12.20;67.50;;;;;;5092576;28;20530;-67
2024/02/09 09:26:50;;;;;;;5.17;3.87;;;12.20;67.30;;;;;;5092833;28;20432;-67
2024/02/09 09:29:17;;;;;;;7.83;4.00;;;12.20;67.30;;;;;;5093159;28;20439;-68
2024/02/09 09:31:47;;;;;;;7.33;5.07;;;12.30;67.10;;;;;;5092670;28;20742;-68
2024/02/09 09:34:13;;;;;;;6.20;4.20;;;12.30;67.00;;;;;;5092736;28;20588;-68
2024/02/09 09:36:40;;;;;;;20.63;6.70;;;12.30;66.50;;;;;;5092652;28;20812;-68
2024/02/09 09:39:07;;;;;;;13.80;5.80;;;12.40;66.80;;;;;;5092192;28;20493;-68
2024/02/09 09:41:36;;;;;;;9.00;5.40;;;12.40;66.60;;;;;;5092852;28;20502;-68
2024/02/09 09:44:06;;;;;;;15.83;5.63;;;12.40;66.60;;;;;;5092973;28;20493;-68
2024/02/09 09:46:35;;;;;;;9.57;5.10;;;12.50;66.20;;;;;;5092602;28;20521;-68
2024/02/09 09:49:03;;;;;;;9.27;5.17;;;12.60;65.80;;;;;;5092491;28;20566;-68
2024/02/09 09:51:33;;;;;;;9.60;5.43;;;12.60;66.00;;;;;;5091956;28;20517;-68
2024/02/09 09:54:01;;;;;;;10.33;5.10;;;12.60;65.80;;;;;;5092507;28;20799;-67
2024/02/09 09:56:32;;;;;;;9.90;5.37;;;12.60;66.40;;;;;;5092368;28;20853;-68
2024/02/09 09:58:59;;;;;;;8.60;5.60;;;12.60;66.10;;;;;;5092677;28;20436;-68
2024/02/09 10:01:29;;;;;;;9.10;5.27;;;12.70;66.20;;;;;;5092694;28;20436;-68
2024/02/09 10:03:56;;;;;;;9.40;4.93;;;12.70;66.00;;;;;;5092599;28;20842;-67
2024/02/09 10:06:24;;;;;;;8.77;4.67;;;12.70;65.90;;;;;;5092149;28;20518;-68
2024/02/09 10:08:55;;;;;;;9.93;5.63;;;12.70;65.60;;;;;;5091992;28;20526;-68
2024/02/09 10:11:22;;;;;;;8.23;4.03;;;12.80;65.60;;;;;;5089913;28;20475;-68
2024/02/09 10:13:52;;;;;;;9.10;4.63;;;12.80;65.70;;;;;;5092662;28;20467;-68
2024/02/09 10:16:20;;;;;;;6.30;4.13;;;12.80;65.70;;;;;;5092379;28;20526;-68
2024/02/09 10:18:49;;;;;;;7.20;4.47;;;12.90;65.50;;;;;;5092624;28;20435;-68
2024/02/09 10:21:16;;;;;;;7.10;3.20;;;12.90;65.20;;;;;;5092227;28;20905;-68
2024/02/09 10:23:46;;;;;;;5.80;3.53;;;13.00;64.70;;;;;;5092016;28;21008;-68
2024/02/09 10:26:14;;;;;;;4.80;3.10;;;13.10;64.80;;;;;;5092088;28;20460;-68
2024/02/09 10:28:41;;;;;;;5.00;2.87;;;13.20;64.50;;;;;;5092418;28;20497;-68
2024/02/09 10:31:08;;;;;;;7.83;4.20;;;13.20;64.00;;;;;;5092406;28;20529;-68
2024/02/09 10:33:37;;;;;;;4.80;2.70;;;13.20;63.70;;;;;;5092025;28;20435;-68
2024/02/09 10:36:11;;;;;;;6.50;3.50;;;13.30;63.20;;;;;;5091609;28;20474;-68
2024/02/09 10:38:38;;;;;;;4.57;2.60;;;13.40;63.30;;;;;;5092099;28;20499;-68
2024/02/09 10:41:07;;;;;;;6.10;3.73;;;13.40;63.40;;;;;;5092120;28;20466;-67
2024/02/09 10:43:36;;;;;;;3.63;2.40;;;13.50;63.10;;;;;;5092189;28;20877;-67
2024/02/09 10:46:06;;;;;;;5.77;2.37;;;13.70;62.70;;;;;;5095385;28;20442;-68
2024/02/09 10:48:37;;;;;;;5.80;2.47;;;13.80;62.10;;;;;;5095456;28;21032;-68
2024/02/09 10:51:07;;;;;;;3.80;1.90;;;14.00;61.40;;;;;;5096122;28;20434;-67
2024/02/09 10:53:36;;;;;;;4.60;2.60;;;14.10;60.10;;;;;;5095870;28;20502;-68
2024/02/09 10:56:07;;;;;;;4.60;2.10;;;14.10;60.00;;;;;;5095930;28;20754;-68
2024/02/09 10:58:34;;;;;;;5.57;3.00;;;14.10;59.90;;;;;;5092497;28;20440;-68
2024/02/09 11:01:04;;;;;;;4.70;2.53;;;14.20;59.40;;;;;;5091868;28;20466;-68
2024/02/09 11:03:31;;;;;;;3.17;1.77;;;14.20;58.90;;;;;;5092098;28;20524;-68
2024/02/09 11:06:02;;;;;;;3.23;1.87;;;14.30;57.90;;;;;;5095293;28;20937;-68
2024/02/09 11:08:33;;;;;;;5.77;2.20;;;14.30;57.50;;;;;;5095495;28;20467;-68
2024/02/09 11:11:01;;;;;;;3.90;2.40;;;14.30;56.90;;;;;;5095309;28;20992;-68
2024/02/09 11:13:28;;;;;;;3.90;2.00;;;14.30;57.10;;;;;;5095323;28;20463;-68
2024/02/09 11:15:57;;;;;;;4.60;2.73;;;14.30;57.10;;;;;;5095135;28;20427;-68
2024/02/09 11:18:30;;;;;;;4.47;1.73;;;14.40;57.40;;;;;;5094994;28;20440;-68
2024/02/09 11:21:00;;;;;;;5.43;2.67;;;14.50;57.40;;;;;;5095738;28;20789;-67
2024/02/09 11:23:28;;;;;;;4.50;2.13;;;14.40;57.20;;;;;;5095001;28;20526;-68
2024/02/09 11:25:59;;;;;;;7.13;3.13;;;14.50;57.30;;;;;;5094658;28;20524;-68
2024/02/09 11:28:26;;;;;;;4.40;2.70;;;14.50;57.90;;;;;;5094856;28;20467;-68
2024/02/09 11:30:56;;;;;;;4.63;2.03;;;14.50;58.00;;;;;;5094972;28;20908;-68
2024/02/09 11:33:23;;;;;;;3.83;2.10;;;14.50;57.90;;;;;;5094766;28;21115;-68
2024/02/09 11:35:50;;;;;;;3.33;2.10;;;14.50;58.10;;;;;;5094733;28;20522;-68
2024/02/09 11:38:20;;;;;;;7.20;2.67;;;14.50;58.10;;;;;;5095121;28;20921;-68
2024/02/09 11:40:49;;;;;;;4.63;2.83;;;14.50;58.20;;;;;;5095560;28;20467;-68
2024/02/09 11:43:17;;;;;;;4.93;2.60;;;14.60;58.30;;;;;;5095412;28;20980;-68
2024/02/09 11:45:45;;;;;;;4.20;2.97;;;14.60;57.90;;;;;;5095123;28;20913;-68
2024/02/09 11:48:12;;;;;;;5.23;3.33;;;14.70;57.90;;;;;;5095538;28;20820;-68
2024/02/09 11:50:40;;;;;;;5.27;3.20;;;14.70;58.00;;;;;;5095235;28;20445;-68
2024/02/09 11:53:09;;;;;;;5.17;2.77;;;14.70;57.10;;;;;;5095513;28;20510;-68
2024/02/09 11:55:40;;;;;;;6.27;3.07;;;14.70;57.10;;;;;;5094856;28;20514;-68
2024/02/09 11:58:08;;;;;;;4.50;2.00;;;14.70;57.60;;;;;;5095353;28;20423;-68
2024/02/09 12:00:40;;;;;;;4.90;2.40;;;14.80;57.50;;;;;;5095415;28;20897;-67
2024/02/09 12:03:07;;;;;;;4.87;2.50;;;14.80;57.00;;;;;;5095069;28;20902;-68
2024/02/09 12:05:35;;;;;;;7.50;3.10;;;14.80;57.20;;;;;;5095174;28;20782;-68
2024/02/09 12:08:02;;;;;;;4.33;2.33;;;14.80;57.20;;;;;;5094230;28;20466;-68
2024/02/09 12:10:31;;;;;;;4.83;2.80;;;14.90;57.40;;;;;;5094247;28;20526;-68
2024/02/09 12:12:58;;;;;;;4.20;2.30;;;14.90;57.30;;;;;;5093730;28;20518;-68
2024/02/09 12:15:25;;;;;;;5.33;3.00;;;15.00;57.00;;;;;;5094091;28;20440;-68
2024/02/09 12:17:58;;;;;;;10.97;2.73;;;14.90;57.40;;;;;;5094057;28;20447;-68
2024/02/09 12:20:25;;;;;;;6.80;3.23;;;15.00;57.10;;;;;;5094668;28;21008;-68
2024/02/09 12:22:52;;;;;;;5.17;2.47;;;14.90;57.20;;;;;;5094575;28;20474;-68
2024/02/09 12:25:19;;;;;;;9.90;2.80;;;15.00;57.10;;;;;;5094537;28;20477;-68
2024/02/09 12:27:47;;;;;;;4.53;2.30;;;15.00;57.00;;;;;;5094365;28;20934;-68
2024/02/09 12:30:15;;;;;;;6.80;2.63;;;15.00;56.90;;;;;;5094591;28;20470;-68
2024/02/09 12:32:43;;;;;;;5.77;2.73;;;15.10;57.00;;;;;;5094628;28;20467;-68
2024/02/09 12:35:11;;;;;;;12.53;3.80;;;15.20;57.10;;;;;;5094279;28;20507;-68
2024/02/09 12:37:41;;;;;;;6.03;3.03;;;15.30;57.00;;;;;;5094807;28;20518;-68
2024/02/09 12:40:10;;;;;;;5.67;2.43;;;15.40;56.30;;;;;;5094055;28;20796;-68
2024/02/09 12:42:41;;;;;;;4.77;2.50;;;15.40;56.20;;;;;;5094536;28;20518;-68
2024/02/09 12:45:09;;;;;;;6.50;2.60;;;15.50;55.20;;;;;;5094453;28;20432;-68
2024/02/09 12:47:38;;;;;;;5.80;2.90;;;15.60;55.50;;;;;;5094082;28;20782;-68
2024/02/09 12:50:08;;;;;;;5.07;2.57;;;15.60;55.40;;;;;;5093953;28;20467;-68
2024/02/09 12:52:36;;;;;;;4.73;2.77;;;15.70;54.80;;;;;;5094382;28;20431;-68
2024/02/09 12:55:04;;;;;;;8.50;2.93;;;15.80;54.70;;;;;;5093908;28;20514;-68
2024/02/09 12:57:31;;;;;;;4.13;2.13;;;15.80;54.50;;;;;;5094313;28;20518;-68
2024/02/09 12:59:58;;;;;;;4.27;2.50;;;15.90;54.40;;;;;;5093989;28;20439;-68
2024/02/09 13:02:25;;;;;;;5.10;3.53;;;15.90;54.30;;;;;;5094376;28;20526;-68
2024/02/09 13:04:52;;;;;;;4.33;2.70;;;15.90;54.30;;;;;;5094068;28;20526;-68
2024/02/09 13:07:19;;;;;;;7.20;3.53;;;15.90;54.20;;;;;;5093560;28;20478;-68
2024/02/09 13:09:47;;;;;;;5.20;2.87;;;15.90;54.10;;;;;;5093928;28;20506;-68
2024/02/09 13:12:14;;;;;;;7.60;2.40;;;15.90;54.10;;;;;;5093646;28;20470;-69
2024/02/09 13:14:42;;;;;;;7.40;2.67;;;15.80;53.90;;;;;;5093763;28;20472;-68
2024/02/09 13:17:09;;;;;;;6.00;3.47;;;15.80;53.90;;;;;;5093873;28;20841;-68
2024/02/09 13:19:36;;;;;;;6.37;3.03;;;15.80;54.30;;;;;;5094070;28;20443;-69
2024/02/09 13:22:08;;;;;;;8.13;3.30;;;15.80;54.30;;;;;;5093496;28;20569;-69
2024/02/09 13:24:39;;;;;;;6.20;3.67;;;15.80;54.30;;;;;;5093908;28;20415;-71
2024/02/09 13:27:12;;;;;;;5.83;2.60;;;15.80;54.10;;;;;;5093429;28;20423;-69
2024/02/09 13:29:42;;;;;;;3.87;2.50;;;15.90;54.10;;;;;;5093718;28;20554;-69
2024/02/09 13:32:12;;;;;;;4.80;2.70;;;15.90;54.10;;;;;;5093413;28;20497;-69
2024/02/09 13:34:40;;;;;;;4.30;2.20;;;15.90;53.90;;;;;;5093693;28;20801;-69
2024/02/09 13:37:07;;;;;;;4.90;2.90;;;16.00;53.20;;;;;;5093500;28;20463;-69
2024/02/09 13:39:36;;;;;;;4.23;3.23;;;16.10;53.30;;;;;;5093332;28;20828;-69
2024/02/09 13:42:05;;;;;;;4.97;3.00;;;16.10;53.30;;;;;;5093288;28;20460;-69
2024/02/09 13:44:33;;;;;;;4.77;2.93;;;16.10;53.40;;;;;;5093600;28;20416;-69
2024/02/09 13:47:01;;;;;;;5.20;2.53;;;16.10;53.10;;;;;;5092664;28;20428;-69
2024/02/09 13:49:27;;;;;;;3.80;2.37;;;16.00;52.90;;;;;;5092873;28;20558;-68
2024/02/09 13:51:55;;;;;;;6.47;2.90;;;16.00;52.80;;;;;;5109747;28;20510;-69
2024/02/09 13:54:22;;;;;;;5.43;2.60;;;15.90;52.70;;;;;;5113504;28;20443;-69
2024/02/09 13:56:49;;;;;;;5.10;2.50;;;15.80;52.40;;;;;;5113174;28;20982;-69
2024/02/09 13:59:21;;;;;;;5.37;2.17;;;15.80;52.40;;;;;;5113505;28;20434;-68
2024/02/09 14:01:49;;;;;;;4.17;1.93;;;15.70;52.10;;;;;;5113589;28;20507;-68
2024/02/09 14:04:16;;;;;;;4.13;2.60;;;15.70;52.20;;;;;;5112644;28;20458;-69
2024/02/09 14:06:44;;;;;;;8.03;1.97;;;15.70;52.50;;;;;;5113249;28;20433;-69
2024/02/09 14:09:15;;;;;;;8.03;2.63;;;15.70;52.70;;;;;;5113194;28;20532;-69
2024/02/09 14:11:44;;;;;;;3.63;1.90;;;15.60;52.80;;;;;;5113155;28;20429;-68
2024/02/09 14:14:11;;;;;;;7.13;2.60;;;15.60;52.70;;;;;;5113119;28;20434;-69
2024/02/09 14:16:38;;;;;;;6.57;3.80;;;15.50;52.80;;;;;;5113433;28;20430;-68
2024/02/09 14:19:06;;;;;;;4.10;2.33;;;15.50;52.60;;;;;;5115245;28;20521;-68
2024/02/09 14:21:35;;;;;;;6.37;3.47;;;15.50;52.50;;;;;;5117446;28;20779;-69
2024/02/09 14:24:02;;;;;;;5.27;2.87;;;15.40;52.50;;;;;;5117278;28;20942;-69
2024/02/09 14:26:29;;;;;;;5.43;2.50;;;15.40;52.70;;;;;;5117415;27;20850;-68
2024/02/09 14:28:59;;;;;;;8.63;3.40;;;15.30;53.00;;;;;;5117257;28;20470;-69
2024/02/09 14:31:32;;;;;;;6.87;4.30;;;15.30;53.10;;;;;;5117523;28;20441;-69
2024/02/09 14:33:59;;;;;;;4.13;2.50;;;15.20;53.30;;;;;;5117430;28;20473;-69
2024/02/09 14:36:27;;;;;;;5.27;2.40;;;15.20;53.30;;;;;;5116827;28;20520;-69